KGLS/GLS METAR and TAF weather

Enter ICAO airport designator
Station Type Date Time Source
KGLS METAR 2022/08/12 14:11 UTC NOAA

KGLS 121411Z 32010KT 10SM VCTS FEW032 BKN080 OVC100 28/25 A3000 RMK AO2 LTG DSNT SE RAE11 P0001 T02830250


Station Type Date Time Source
KGLS Decoded METAR 2022/08/12 14:11 UTC NOAA

SCHOLES FIELD, TX, United States (KGLS) 29-16N 094-52W 6M
Aug 12, 2022 - 10:11 AM EDT / 2022.08.12 1411 UTC
Wind: from the NW (320 degrees) at 12 MPH (10 KT):0
Visibility: 10 mile(s):0
Sky conditions: overcast
Weather: thunder in the vicinity; Lightning observed
Precipitation last hour: 0.01 inches
Temperature: 82.9 F (28.3 C)
Dew Point: 77.0 F (25.0 C)
Relative Humidity: 82%
Pressure (altimeter): 30 in. Hg (1015 hPa)
ob: KGLS 121411Z 32010KT 10SM VCTS FEW032 BKN080 OVC100 28/25 A3000 RMK AO2 LTG DSNT SE RAE11 P0001 T02830250
cycle: 14

Station Type Date Time Source
KGLS TAF 2022/08/12 12:27 UTC NOAA

TAF KGLS 121121Z 1212/1312 36007KT P6SM VCTS SCT020CB BKN035
TEMPO 1212/1213 VRB12G22KT 3SM TSRA
FM121600 03010KT P6SM VCTS SCT030CB BKN100
FM122000 09010KT P6SM VCTS SCT035CB BKN100
FM130200 VRB05KT P6SM SCT030 BKN080
FM130700 VRB04KT P6SM VCSH SCT025 BKN050

Example: see airport list